sensor_id;sensor_type;location;lat;lon;timestamp;P1;durP1;ratioP1;P2;durP2;ratioP2
53931;SDS011;39844;52.496;13.482;2023-04-01T00:01:54;1.27;;;1.20;;
53931;SDS011;39844;52.496;13.482;2023-04-01T00:04:19;1.23;;;1.10;;
53931;SDS011;39844;52.496;13.482;2023-04-01T00:06:44;1.83;;;1.17;;
53931;SDS011;39844;52.496;13.482;2023-04-01T00:09:10;1.27;;;1.17;;
53931;SDS011;39844;52.496;13.482;2023-04-01T00:11:35;1.27;;;1.17;;
53931;SDS011;39844;52.496;13.482;2023-04-01T00:14:00;1.47;;;1.37;;
53931;SDS011;39844;52.496;13.482;2023-04-01T00:16:26;1.70;;;1.60;;
53931;SDS011;39844;52.496;13.482;2023-04-01T00:18:51;3.03;;;2.27;;
53931;SDS011;39844;52.496;13.482;2023-04-01T00:21:16;2.87;;;1.80;;
53931;SDS011;39844;52.496;13.482;2023-04-01T00:23:42;2.80;;;1.90;;
53931;SDS011;39844;52.496;13.482;2023-04-01T00:26:08;1.60;;;1.50;;
53931;SDS011;39844;52.496;13.482;2023-04-01T00:28:33;2.63;;;2.00;;
53931;SDS011;39844;52.496;13.482;2023-04-01T00:31:03;1.80;;;1.67;;
53931;SDS011;39844;52.496;13.482;2023-04-01T00:33:29;1.90;;;1.63;;
53931;SDS011;39844;52.496;13.482;2023-04-01T00:35:55;1.33;;;1.30;;
53931;SDS011;39844;52.496;13.482;2023-04-01T00:38:20;2.93;;;1.60;;
53931;SDS011;39844;52.496;13.482;2023-04-01T00:40:46;1.57;;;1.50;;
53931;SDS011;39844;52.496;13.482;2023-04-01T00:43:16;1.93;;;1.60;;
53931;SDS011;39844;52.496;13.482;2023-04-01T00:45:42;1.40;;;1.30;;
53931;SDS011;39844;52.496;13.482;2023-04-01T00:48:29;1.50;;;1.27;;
53931;SDS011;39844;52.496;13.482;2023-04-01T00:51:02;1.43;;;1.33;;
53931;SDS011;39844;52.496;13.482;2023-04-01T00:53:31;1.27;;;1.20;;
53931;SDS011;39844;52.496;13.482;2023-04-01T00:56:15;1.37;;;1.27;;
53931;SDS011;39844;52.496;13.482;2023-04-01T00:59:02;1.27;;;1.27;;
53931;SDS011;39844;52.496;13.482;2023-04-01T01:01:31;1.00;;;1.00;;
53931;SDS011;39844;52.496;13.482;2023-04-01T01:03:57;1.53;;;1.23;;
53931;SDS011;39844;52.496;13.482;2023-04-01T01:06:30;1.20;;;1.20;;
53931;SDS011;39844;52.496;13.482;2023-04-01T01:11:35;1.50;;;1.40;;
53931;SDS011;39844;52.496;13.482;2023-04-01T01:14:08;2.37;;;1.60;;
53931;SDS011;39844;52.496;13.482;2023-04-01T01:16:43;1.30;;;1.20;;
53931;SDS011;39844;52.496;13.482;2023-04-01T01:19:31;1.40;;;1.27;;
53931;SDS011;39844;52.496;13.482;2023-04-01T01:22:15;4.97;;;1.60;;
53931;SDS011;39844;52.496;13.482;2023-04-01T01:27:35;1.03;;;1.03;;
53931;SDS011;39844;52.496;13.482;2023-04-01T01:30:16;0.93;;;0.93;;
53931;SDS011;39844;52.496;13.482;2023-04-01T01:33:05;1.47;;;1.37;;
53931;SDS011;39844;52.496;13.482;2023-04-01T01:35:38;1.30;;;1.20;;
53931;SDS011;39844;52.496;13.482;2023-04-01T01:41:11;2.27;;;1.70;;
53931;SDS011;39844;52.496;13.482;2023-04-01T01:43:39;1.40;;;1.23;;
53931;SDS011;39844;52.496;13.482;2023-04-01T01:46:09;1.70;;;1.60;;
53931;SDS011;39844;52.496;13.482;2023-04-01T01:48:41;1.53;;;1.40;;
53931;SDS011;39844;52.496;13.482;2023-04-01T01:51:08;0.97;;;0.97;;
53931;SDS011;39844;52.496;13.482;2023-04-01T01:53:33;1.27;;;1.27;;
53931;SDS011;39844;52.496;13.482;2023-04-01T01:56:00;2.37;;;1.40;;
53931;SDS011;39844;52.496;13.482;2023-04-01T01:58:29;1.37;;;1.27;;
53931;SDS011;39844;52.496;13.482;2023-04-01T02:01:02;1.03;;;1.03;;
53931;SDS011;39844;52.496;13.482;2023-04-01T02:03:33;1.20;;;1.20;;
53931;SDS011;39844;52.496;13.482;2023-04-01T02:06:00;1.30;;;1.20;;
53931;SDS011;39844;52.496;13.482;2023-04-01T02:08:34;1.43;;;1.33;;
53931;SDS011;39844;52.496;13.482;2023-04-01T02:11:09;0.90;;;0.90;;
53931;SDS011;39844;52.496;13.482;2023-04-01T02:13:40;1.50;;;1.40;;
53931;SDS011;39844;52.496;13.482;2023-04-01T02:16:15;0.87;;;0.87;;
53931;SDS011;39844;52.496;13.482;2023-04-01T02:18:49;0.80;;;0.80;;
53931;SDS011;39844;52.496;13.482;2023-04-01T02:21:16;1.37;;;1.10;;
53931;SDS011;39844;52.496;13.482;2023-04-01T02:23:44;1.03;;;1.03;;
53931;SDS011;39844;52.496;13.482;2023-04-01T02:26:11;1.40;;;1.30;;
53931;SDS011;39844;52.496;13.482;2023-04-01T02:28:39;2.17;;;1.17;;
53931;SDS011;39844;52.496;13.482;2023-04-01T02:31:07;0.90;;;0.90;;
53931;SDS011;39844;52.496;13.482;2023-04-01T02:33:34;1.37;;;1.27;;
53931;SDS011;39844;52.496;13.482;2023-04-01T02:36:01;0.97;;;0.97;;
53931;SDS011;39844;52.496;13.482;2023-04-01T02:38:27;1.30;;;1.10;;
53931;SDS011;39844;52.496;13.482;2023-04-01T02:40:56;1.70;;;1.10;;
53931;SDS011;39844;52.496;13.482;2023-04-01T02:43:25;0.90;;;0.90;;
53931;SDS011;39844;52.496;13.482;2023-04-01T02:45:51;1.23;;;1.23;;
53931;SDS011;39844;52.496;13.482;2023-04-01T02:48:16;0.80;;;0.80;;
53931;SDS011;39844;52.496;13.482;2023-04-01T02:50:42;1.03;;;1.03;;
53931;SDS011;39844;52.496;13.482;2023-04-01T02:53:07;1.40;;;1.30;;
53931;SDS011;39844;52.496;13.482;2023-04-01T02:55:33;1.97;;;1.70;;
53931;SDS011;39844;52.496;13.482;2023-04-01T02:57:58;1.80;;;1.10;;
53931;SDS011;39844;52.496;13.482;2023-04-01T03:00:24;2.23;;;1.50;;
53931;SDS011;39844;52.496;13.482;2023-04-01T03:02:50;1.77;;;1.30;;
53931;SDS011;39844;52.496;13.482;2023-04-01T03:05:15;1.10;;;1.03;;
53931;SDS011;39844;52.496;13.482;2023-04-01T03:07:41;3.77;;;1.20;;
53931;SDS011;39844;52.496;13.482;2023-04-01T03:10:06;2.33;;;1.20;;
53931;SDS011;39844;52.496;13.482;2023-04-01T03:12:32;1.37;;;1.20;;
53931;SDS011;39844;52.496;13.482;2023-04-01T03:14:57;1.10;;;1.10;;
53931;SDS011;39844;52.496;13.482;2023-04-01T03:17:22;1.17;;;1.17;;
53931;SDS011;39844;52.496;13.482;2023-04-01T03:19:48;1.10;;;1.10;;
53931;SDS011;39844;52.496;13.482;2023-04-01T03:22:13;1.90;;;1.30;;
53931;SDS011;39844;52.496;13.482;2023-04-01T03:24:38;1.17;;;1.07;;
53931;SDS011;39844;52.496;13.482;2023-04-01T03:27:04;1.40;;;1.30;;
53931;SDS011;39844;52.496;13.482;2023-04-01T03:29:29;1.00;;;1.00;;
53931;SDS011;39844;52.496;13.482;2023-04-01T03:31:54;1.23;;;1.23;;
53931;SDS011;39844;52.496;13.482;2023-04-01T03:34:20;1.30;;;1.20;;
53931;SDS011;39844;52.496;13.482;2023-04-01T03:36:45;1.10;;;1.10;;
53931;SDS011;39844;52.496;13.482;2023-04-01T03:39:10;1.37;;;1.10;;
53931;SDS011;39844;52.496;13.482;2023-04-01T03:41:36;1.10;;;1.10;;
53931;SDS011;39844;52.496;13.482;2023-04-01T03:44:02;3.60;;;1.60;;
53931;SDS011;39844;52.496;13.482;2023-04-01T03:46:27;1.50;;;1.40;;
53931;SDS011;39844;52.496;13.482;2023-04-01T03:48:52;1.20;;;1.20;;
53931;SDS011;39844;52.496;13.482;2023-04-01T03:51:17;1.40;;;1.30;;
53931;SDS011;39844;52.496;13.482;2023-04-01T03:53:43;1.60;;;1.50;;
53931;SDS011;39844;52.496;13.482;2023-04-01T03:56:08;1.30;;;1.30;;
53931;SDS011;39844;52.496;13.482;2023-04-01T03:58:35;1.70;;;1.60;;
53931;SDS011;39844;52.496;13.482;2023-04-01T04:01:01;1.80;;;1.70;;
53931;SDS011;39844;52.496;13.482;2023-04-01T04:03:26;1.40;;;1.40;;
53931;SDS011;39844;52.496;13.482;2023-04-01T04:05:51;1.70;;;1.60;;
53931;SDS011;39844;52.496;13.482;2023-04-01T04:08:17;1.50;;;1.40;;
53931;SDS011;39844;52.496;13.482;2023-04-01T04:10:42;1.20;;;1.20;;
53931;SDS011;39844;52.496;13.482;2023-04-01T04:13:07;1.40;;;1.30;;
53931;SDS011;39844;52.496;13.482;2023-04-01T04:15:32;1.57;;;1.10;;
53931;SDS011;39844;52.496;13.482;2023-04-01T04:17:58;3.13;;;1.63;;
53931;SDS011;39844;52.496;13.482;2023-04-01T04:20:23;1.60;;;1.50;;
53931;SDS011;39844;52.496;13.482;2023-04-01T04:22:48;1.20;;;1.20;;
53931;SDS011;39844;52.496;13.482;2023-04-01T04:25:14;1.20;;;1.20;;
53931;SDS011;39844;52.496;13.482;2023-04-01T04:27:39;1.80;;;1.47;;
53931;SDS011;39844;52.496;13.482;2023-04-01T04:30:05;1.57;;;1.33;;
53931;SDS011;39844;52.496;13.482;2023-04-01T04:32:31;1.10;;;1.10;;
53931;SDS011;39844;52.496;13.482;2023-04-01T04:34:56;1.30;;;1.20;;
53931;SDS011;39844;52.496;13.482;2023-04-01T04:37:22;1.73;;;1.40;;
53931;SDS011;39844;52.496;13.482;2023-04-01T04:39:47;1.47;;;1.33;;
53931;SDS011;39844;52.496;13.482;2023-04-01T04:42:12;1.50;;;1.40;;
53931;SDS011;39844;52.496;13.482;2023-04-01T04:44:38;1.80;;;1.70;;
53931;SDS011;39844;52.496;13.482;2023-04-01T04:47:04;1.47;;;1.37;;
53931;SDS011;39844;52.496;13.482;2023-04-01T04:49:32;1.60;;;1.50;;
53931;SDS011;39844;52.496;13.482;2023-04-01T04:51:57;1.10;;;1.10;;
53931;SDS011;39844;52.496;13.482;2023-04-01T04:54:22;1.30;;;1.20;;
53931;SDS011;39844;52.496;13.482;2023-04-01T04:56:48;2.27;;;1.40;;
53931;SDS011;39844;52.496;13.482;2023-04-01T04:59:15;1.03;;;1.03;;
53931;SDS011;39844;52.496;13.482;2023-04-01T05:01:40;2.70;;;1.57;;
53931;SDS011;39844;52.496;13.482;2023-04-01T05:04:06;1.80;;;1.70;;
53931;SDS011;39844;52.496;13.482;2023-04-01T05:06:31;1.20;;;1.10;;
53931;SDS011;39844;52.496;13.482;2023-04-01T05:08:56;2.73;;;1.40;;
53931;SDS011;39844;52.496;13.482;2023-04-01T05:11:22;1.20;;;1.20;;
53931;SDS011;39844;52.496;13.482;2023-04-01T05:13:48;1.10;;;1.10;;
53931;SDS011;39844;52.496;13.482;2023-04-01T05:16:14;1.57;;;1.27;;
53931;SDS011;39844;52.496;13.482;2023-04-01T05:18:41;1.60;;;1.50;;
53931;SDS011;39844;52.496;13.482;2023-04-01T05:21:07;2.33;;;2.20;;
53931;SDS011;39844;52.496;13.482;2023-04-01T05:23:34;1.37;;;1.33;;
53931;SDS011;39844;52.496;13.482;2023-04-01T05:26:02;1.87;;;1.43;;
53931;SDS011;39844;52.496;13.482;2023-04-01T05:28:31;1.50;;;1.40;;
53931;SDS011;39844;52.496;13.482;2023-04-01T05:30:58;2.23;;;1.30;;
53931;SDS011;39844;52.496;13.482;2023-04-01T05:33:24;1.07;;;1.07;;
53931;SDS011;39844;52.496;13.482;2023-04-01T05:35:49;1.67;;;1.57;;
53931;SDS011;39844;52.496;13.482;2023-04-01T05:38:14;1.77;;;1.60;;
53931;SDS011;39844;52.496;13.482;2023-04-01T05:40:40;1.30;;;1.30;;
53931;SDS011;39844;52.496;13.482;2023-04-01T05:43:05;1.63;;;1.30;;
53931;SDS011;39844;52.496;13.482;2023-04-01T05:45:30;2.13;;;1.40;;
53931;SDS011;39844;52.496;13.482;2023-04-01T05:47:56;2.50;;;1.43;;
53931;SDS011;39844;52.496;13.482;2023-04-01T05:50:21;1.00;;;1.00;;
53931;SDS011;39844;52.496;13.482;2023-04-01T05:52:46;1.40;;;1.30;;
53931;SDS011;39844;52.496;13.482;2023-04-01T05:55:12;1.03;;;1.03;;
53931;SDS011;39844;52.496;13.482;2023-04-01T05:57:37;1.23;;;1.20;;
53931;SDS011;39844;52.496;13.482;2023-04-01T06:00:03;1.10;;;1.10;;
53931;SDS011;39844;52.496;13.482;2023-04-01T06:02:29;1.47;;;1.37;;
53931;SDS011;39844;52.496;13.482;2023-04-01T06:04:56;1.10;;;1.10;;
53931;SDS011;39844;52.496;13.482;2023-04-01T06:07:36;1.30;;;1.20;;
53931;SDS011;39844;52.496;13.482;2023-04-01T06:10:01;1.40;;;1.30;;
53931;SDS011;39844;52.496;13.482;2023-04-01T06:12:36;1.20;;;1.20;;
53931;SDS011;39844;52.496;13.482;2023-04-01T06:20:51;1.87;;;1.47;;
53931;SDS011;39844;52.496;13.482;2023-04-01T06:26:16;1.57;;;1.47;;
53931;SDS011;39844;52.496;13.482;2023-04-01T06:31:26;1.40;;;1.40;;
53931;SDS011;39844;52.496;13.482;2023-04-01T06:37:08;1.70;;;1.60;;
53931;SDS011;39844;52.496;13.482;2023-04-01T06:39:48;1.53;;;1.30;;
53931;SDS011;39844;52.496;13.482;2023-04-01T06:51:16;1.17;;;1.07;;
53931;SDS011;39844;52.496;13.482;2023-04-01T06:54:03;1.27;;;1.27;;
53931;SDS011;39844;52.496;13.482;2023-04-01T06:56:34;0.87;;;0.87;;
53931;SDS011;39844;52.496;13.482;2023-04-01T06:59:17;1.50;;;1.00;;
53931;SDS011;39844;52.496;13.482;2023-04-01T07:01:47;1.20;;;1.20;;
53931;SDS011;39844;52.496;13.482;2023-04-01T07:09:41;1.63;;;1.47;;
53931;SDS011;39844;52.496;13.482;2023-04-01T07:12:15;1.40;;;1.30;;
53931;SDS011;39844;52.496;13.482;2023-04-01T07:14:50;1.00;;;1.00;;
53931;SDS011;39844;52.496;13.482;2023-04-01T07:17:25;1.30;;;1.20;;
53931;SDS011;39844;52.496;13.482;2023-04-01T07:22:49;1.30;;;1.30;;
53931;SDS011;39844;52.496;13.482;2023-04-01T07:25:31;1.13;;;1.03;;
53931;SDS011;39844;52.496;13.482;2023-04-01T07:28:02;1.40;;;1.30;;
53931;SDS011;39844;52.496;13.482;2023-04-01T07:30:33;0.97;;;0.97;;
53931;SDS011;39844;52.496;13.482;2023-04-01T07:33:14;1.70;;;1.50;;
53931;SDS011;39844;52.496;13.482;2023-04-01T07:35:46;2.03;;;1.13;;
53931;SDS011;39844;52.496;13.482;2023-04-01T07:38:22;1.60;;;1.30;;
53931;SDS011;39844;52.496;13.482;2023-04-01T07:43:53;1.30;;;1.20;;
53931;SDS011;39844;52.496;13.482;2023-04-01T07:59:58;1.83;;;1.57;;
53931;SDS011;39844;52.496;13.482;2023-04-01T08:07:43;1.50;;;1.40;;
53931;SDS011;39844;52.496;13.482;2023-04-01T08:10:27;1.97;;;1.17;;
53931;SDS011;39844;52.496;13.482;2023-04-01T08:21:32;1.47;;;1.23;;
53931;SDS011;39844;52.496;13.482;2023-04-01T08:24:17;1.30;;;1.27;;
53931;SDS011;39844;52.496;13.482;2023-04-01T08:26:50;1.50;;;1.40;;
53931;SDS011;39844;52.496;13.482;2023-04-01T08:29:30;1.83;;;1.63;;
53931;SDS011;39844;52.496;13.482;2023-04-01T08:32:06;1.60;;;1.50;;
53931;SDS011;39844;52.496;13.482;2023-04-01T08:34:37;2.00;;;1.90;;
53931;SDS011;39844;52.496;13.482;2023-04-01T08:37:04;2.87;;;2.57;;
53931;SDS011;39844;52.496;13.482;2023-04-01T08:39:42;1.93;;;1.83;;
53931;SDS011;39844;52.496;13.482;2023-04-01T08:50:36;2.33;;;1.97;;
53931;SDS011;39844;52.496;13.482;2023-04-01T08:58:47;3.57;;;2.97;;
53931;SDS011;39844;52.496;13.482;2023-04-01T09:04:25;3.07;;;2.77;;
53931;SDS011;39844;52.496;13.482;2023-04-01T09:09:33;3.13;;;2.93;;
53931;SDS011;39844;52.496;13.482;2023-04-01T09:28:19;3.30;;;3.00;;
53931;SDS011;39844;52.496;13.482;2023-04-01T09:31:16;3.23;;;2.93;;
53931;SDS011;39844;52.496;13.482;2023-04-01T09:51:35;3.33;;;3.13;;
53931;SDS011;39844;52.496;13.482;2023-04-01T09:55:12;3.47;;;3.13;;
53931;SDS011;39844;52.496;13.482;2023-04-01T09:57:28;3.57;;;3.00;;
53931;SDS011;39844;52.496;13.482;2023-04-01T10:08:54;3.20;;;2.93;;
53931;SDS011;39844;52.496;13.482;2023-04-01T10:14:11;3.77;;;3.40;;
53931;SDS011;39844;52.496;13.482;2023-04-01T10:42:34;3.80;;;3.50;;
53931;SDS011;39844;52.496;13.482;2023-04-01T11:04:36;2.47;;;2.23;;
53931;SDS011;39844;52.496;13.482;2023-04-01T11:28:01;1.70;;;1.60;;
53931;SDS011;39844;52.496;13.482;2023-04-01T11:39:11;2.10;;;2.00;;
53931;SDS011;39844;52.496;13.482;2023-04-01T11:44:16;1.50;;;1.50;;
53931;SDS011;39844;52.496;13.482;2023-04-01T12:16:11;1.70;;;1.60;;
53931;SDS011;39844;52.496;13.482;2023-04-01T12:19:00;1.50;;;1.50;;
53931;SDS011;39844;52.496;13.482;2023-04-01T12:27:50;1.70;;;1.60;;
53931;SDS011;39844;52.496;13.482;2023-04-01T12:30:26;1.90;;;1.80;;
53931;SDS011;39844;52.496;13.482;2023-04-01T12:38:22;2.37;;;2.17;;
53931;SDS011;39844;52.496;13.482;2023-04-01T12:46:42;2.00;;;1.90;;
53931;SDS011;39844;52.496;13.482;2023-04-01T12:52:05;1.87;;;1.77;;
53931;SDS011;39844;52.496;13.482;2023-04-01T13:14:52;2.87;;;2.60;;
53931;SDS011;39844;52.496;13.482;2023-04-01T13:42:55;2.73;;;2.53;;
53931;SDS011;39844;52.496;13.482;2023-04-01T13:45:26;1.93;;;1.83;;
53931;SDS011;39844;52.496;13.482;2023-04-01T13:53:49;3.07;;;2.70;;
53931;SDS011;39844;52.496;13.482;2023-04-01T14:10:29;2.13;;;2.03;;
53931;SDS011;39844;52.496;13.482;2023-04-01T14:12:58;2.70;;;2.50;;
53931;SDS011;39844;52.496;13.482;2023-04-01T14:18:26;3.23;;;3.00;;
53931;SDS011;39844;52.496;13.482;2023-04-01T14:44:11;2.50;;;2.30;;
53931;SDS011;39844;52.496;13.482;2023-04-01T14:51:57;2.07;;;1.97;;
53931;SDS011;39844;52.496;13.482;2023-04-01T14:54:31;2.13;;;2.03;;
53931;SDS011;39844;52.496;13.482;2023-04-01T14:59:41;2.27;;;2.17;;
53931;SDS011;39844;52.496;13.482;2023-04-01T15:02:29;2.97;;;2.77;;
53931;SDS011;39844;52.496;13.482;2023-04-01T15:05:16;2.50;;;2.30;;
53931;SDS011;39844;52.496;13.482;2023-04-01T15:10:43;2.27;;;2.17;;
53931;SDS011;39844;52.496;13.482;2023-04-01T15:16:39;2.23;;;2.00;;
53931;SDS011;39844;52.496;13.482;2023-04-01T15:19:21;2.23;;;2.13;;
53931;SDS011;39844;52.496;13.482;2023-04-01T15:22:23;2.50;;;2.40;;
53931;SDS011;39844;52.496;13.482;2023-04-01T15:27:38;2.57;;;2.37;;
53931;SDS011;39844;52.496;13.482;2023-04-01T15:41:16;5.77;;;3.30;;
53931;SDS011;39844;52.496;13.482;2023-04-01T15:43:49;2.67;;;2.47;;
53931;SDS011;39844;52.496;13.482;2023-04-01T15:48:58;4.23;;;1.90;;
53931;SDS011;39844;52.496;13.482;2023-04-01T15:54:24;2.10;;;2.00;;
53931;SDS011;39844;52.496;13.482;2023-04-01T15:57:10;2.00;;;1.90;;
53931;SDS011;39844;52.496;13.482;2023-04-01T16:08:07;2.53;;;2.33;;
53931;SDS011;39844;52.496;13.482;2023-04-01T16:13:33;2.83;;;2.63;;
53931;SDS011;39844;52.496;13.482;2023-04-01T16:21:45;4.10;;;2.83;;
53931;SDS011;39844;52.496;13.482;2023-04-01T16:24:35;2.30;;;2.10;;
53931;SDS011;39844;52.496;13.482;2023-04-01T16:29:39;3.27;;;2.73;;
53931;SDS011;39844;52.496;13.482;2023-04-01T16:32:17;2.67;;;2.47;;
53931;SDS011;39844;52.496;13.482;2023-04-01T16:37:48;2.63;;;2.40;;
53931;SDS011;39844;52.496;13.482;2023-04-01T16:43:35;2.97;;;2.70;;
53931;SDS011;39844;52.496;13.482;2023-04-01T16:49:04;2.60;;;2.40;;
53931;SDS011;39844;52.496;13.482;2023-04-01T16:54:16;2.47;;;2.37;;
53931;SDS011;39844;52.496;13.482;2023-04-01T16:56:55;2.50;;;2.30;;
53931;SDS011;39844;52.496;13.482;2023-04-01T16:59:38;3.07;;;2.40;;
53931;SDS011;39844;52.496;13.482;2023-04-01T17:04:37;2.77;;;2.57;;
53931;SDS011;39844;52.496;13.482;2023-04-01T17:15:19;2.53;;;2.40;;
53931;SDS011;39844;52.496;13.482;2023-04-01T17:23:47;3.33;;;3.07;;
53931;SDS011;39844;52.496;13.482;2023-04-01T17:29:02;3.17;;;2.87;;
53931;SDS011;39844;52.496;13.482;2023-04-01T17:32:09;3.00;;;2.80;;
53931;SDS011;39844;52.496;13.482;2023-04-01T17:37:41;3.27;;;2.97;;
53931;SDS011;39844;52.496;13.482;2023-04-01T17:49:35;4.73;;;2.80;;
53931;SDS011;39844;52.496;13.482;2023-04-01T17:52:10;2.80;;;2.60;;
53931;SDS011;39844;52.496;13.482;2023-04-01T17:54:52;2.80;;;2.60;;
53931;SDS011;39844;52.496;13.482;2023-04-01T17:57:30;2.60;;;2.50;;
53931;SDS011;39844;52.496;13.482;2023-04-01T18:13:30;2.93;;;1.93;;
53931;SDS011;39844;52.496;13.482;2023-04-01T18:16:09;4.37;;;2.40;;
53931;SDS011;39844;52.496;13.482;2023-04-01T18:24:13;4.90;;;2.40;;
53931;SDS011;39844;52.496;13.482;2023-04-01T18:26:44;2.30;;;2.10;;
53931;SDS011;39844;52.496;13.482;2023-04-01T18:29:27;3.27;;;2.23;;
53931;SDS011;39844;52.496;13.482;2023-04-01T18:37:39;2.70;;;2.50;;
53931;SDS011;39844;52.496;13.482;2023-04-01T18:40:15;2.40;;;2.27;;
53931;SDS011;39844;52.496;13.482;2023-04-01T18:54:21;2.07;;;1.97;;
53931;SDS011;39844;52.496;13.482;2023-04-01T18:56:58;2.00;;;1.90;;
53931;SDS011;39844;52.496;13.482;2023-04-01T19:04:56;3.07;;;2.43;;
53931;SDS011;39844;52.496;13.482;2023-04-01T19:10:01;2.23;;;2.10;;
53931;SDS011;39844;52.496;13.482;2023-04-01T19:12:51;3.97;;;2.37;;
53931;SDS011;39844;52.496;13.482;2023-04-01T19:15:29;2.50;;;2.30;;
53931;SDS011;39844;52.496;13.482;2023-04-01T19:18:22;2.73;;;2.43;;
53931;SDS011;39844;52.496;13.482;2023-04-01T19:23:47;6.53;;;4.13;;
53931;SDS011;39844;52.496;13.482;2023-04-01T19:26:23;3.10;;;2.83;;
53931;SDS011;39844;52.496;13.482;2023-04-01T19:36:48;3.03;;;2.73;;
53931;SDS011;39844;52.496;13.482;2023-04-01T19:39:24;2.63;;;2.37;;
53931;SDS011;39844;52.496;13.482;2023-04-01T19:48:18;5.30;;;2.60;;
53931;SDS011;39844;52.496;13.482;2023-04-01T19:51:00;3.27;;;2.73;;
53931;SDS011;39844;52.496;13.482;2023-04-01T19:53:40;2.50;;;2.40;;
53931;SDS011;39844;52.496;13.482;2023-04-01T19:56:21;2.83;;;2.57;;
53931;SDS011;39844;52.496;13.482;2023-04-01T19:58:55;3.27;;;2.50;;
53931;SDS011;39844;52.496;13.482;2023-04-01T20:04:17;6.33;;;2.73;;
53931;SDS011;39844;52.496;13.482;2023-04-01T20:07:03;4.83;;;2.67;;
53931;SDS011;39844;52.496;13.482;2023-04-01T20:15:23;3.40;;;2.93;;
53931;SDS011;39844;52.496;13.482;2023-04-01T20:17:56;7.17;;;3.03;;
53931;SDS011;39844;52.496;13.482;2023-04-01T20:20:26;5.17;;;2.97;;
53931;SDS011;39844;52.496;13.482;2023-04-01T20:25:58;3.87;;;2.50;;
53931;SDS011;39844;52.496;13.482;2023-04-01T20:28:32;3.83;;;2.83;;
53931;SDS011;39844;52.496;13.482;2023-04-01T20:31:10;2.97;;;2.43;;
53931;SDS011;39844;52.496;13.482;2023-04-01T20:33:57;7.67;;;2.50;;
53931;SDS011;39844;52.496;13.482;2023-04-01T20:50:28;3.00;;;2.70;;
53931;SDS011;39844;52.496;13.482;2023-04-01T20:56:09;4.60;;;2.80;;
53931;SDS011;39844;52.496;13.482;2023-04-01T20:58:51;3.27;;;2.97;;
53931;SDS011;39844;52.496;13.482;2023-04-01T21:01:34;3.23;;;2.60;;
53931;SDS011;39844;52.496;13.482;2023-04-01T21:23:49;4.23;;;3.07;;
53931;SDS011;39844;52.496;13.482;2023-04-01T21:32:16;6.70;;;2.57;;
53931;SDS011;39844;52.496;13.482;2023-04-01T21:35:05;3.10;;;2.70;;
53931;SDS011;39844;52.496;13.482;2023-04-01T21:38:14;3.10;;;2.80;;
53931;SDS011;39844;52.496;13.482;2023-04-01T21:44:04;3.37;;;2.80;;
53931;SDS011;39844;52.496;13.482;2023-04-01T22:03:26;3.90;;;2.27;;
53931;SDS011;39844;52.496;13.482;2023-04-01T22:06:10;3.20;;;2.07;;
53931;SDS011;39844;52.496;13.482;2023-04-01T22:09:35;2.80;;;2.57;;
53931;SDS011;39844;52.496;13.482;2023-04-01T22:12:03;9.57;;;2.63;;
53931;SDS011;39844;52.496;13.482;2023-04-01T22:20:17;2.20;;;2.10;;
53931;SDS011;39844;52.496;13.482;2023-04-01T22:35:03;2.23;;;2.00;;
53931;SDS011;39844;52.496;13.482;2023-04-01T22:37:44;2.10;;;1.80;;
53931;SDS011;39844;52.496;13.482;2023-04-01T22:43:13;6.63;;;1.80;;
53931;SDS011;39844;52.496;13.482;2023-04-01T22:46:05;5.00;;;2.07;;
53931;SDS011;39844;52.496;13.482;2023-04-01T22:49:02;1.90;;;1.80;;
53931;SDS011;39844;52.496;13.482;2023-04-01T22:56:36;1.93;;;1.83;;
53931;SDS011;39844;52.496;13.482;2023-04-01T22:59:06;2.00;;;1.90;;
53931;SDS011;39844;52.496;13.482;2023-04-01T23:01:43;2.03;;;1.80;;
53931;SDS011;39844;52.496;13.482;2023-04-01T23:04:15;2.13;;;1.90;;
53931;SDS011;39844;52.496;13.482;2023-04-01T23:06:42;1.70;;;1.67;;
53931;SDS011;39844;52.496;13.482;2023-04-01T23:11:49;1.97;;;1.87;;
53931;SDS011;39844;52.496;13.482;2023-04-01T23:16:51;3.00;;;1.70;;
53931;SDS011;39844;52.496;13.482;2023-04-01T23:19:34;4.53;;;1.90;;
53931;SDS011;39844;52.496;13.482;2023-04-01T23:22:08;6.77;;;2.17;;
53931;SDS011;39844;52.496;13.482;2023-04-01T23:24:40;1.73;;;1.67;;
53931;SDS011;39844;52.496;13.482;2023-04-01T23:27:12;4.03;;;1.93;;
53931;SDS011;39844;52.496;13.482;2023-04-01T23:29:44;2.27;;;1.97;;
53931;SDS011;39844;52.496;13.482;2023-04-01T23:32:14;2.03;;;1.73;;
53931;SDS011;39844;52.496;13.482;2023-04-01T23:34:45;1.90;;;1.80;;
53931;SDS011;39844;52.496;13.482;2023-04-01T23:37:16;1.90;;;1.80;;
53931;SDS011;39844;52.496;13.482;2023-04-01T23:39:46;2.00;;;1.83;;
53931;SDS011;39844;52.496;13.482;2023-04-01T23:42:18;1.73;;;1.63;;
53931;SDS011;39844;52.496;13.482;2023-04-01T23:44:48;1.80;;;1.70;;
53931;SDS011;39844;52.496;13.482;2023-04-01T23:47:19;1.83;;;1.73;;
53931;SDS011;39844;52.496;13.482;2023-04-01T23:49:48;4.23;;;1.60;;
53931;SDS011;39844;52.496;13.482;2023-04-01T23:57:32;2.57;;;2.37;;
